Webcam Zuidwest more information Webcam Zuidwest


Onweer radar more information blitzortung!


Regen radar more information rain snow radar


Weerstation Alkmaar Centrum

Weerstation Luyksgestel

Website Noardburgum


U vindt ons ook hier:

Het Weer Aktueel

UK Metoffice

European Weather Network

Weather Underground

AWEKAS

Citizen Weather Observer Program (CWOP)

HAMweather, WeatherForYou, PWS Weather



Het weer levert geen direct gevaar op.    Er zijn geen waarschuwingen afgegeven.

METAR rapporten vliegvelden


Warning: A non-numeric value encountered in /home/tjeerqo264/domains/wsnoordbergum.nl/public_html/weather2/metar/wsMetarTxt.php on line 609

Warning: A non-numeric value encountered in /home/tjeerqo264/domains/wsnoordbergum.nl/public_html/weather2/metar/metarDisplay.php on line 166

Warning: A non-numeric value encountered in /home/tjeerqo264/domains/wsnoordbergum.nl/public_html/weather2/metar/wsMetarTxt.php on line 609

Warning: A non-numeric value encountered in /home/tjeerqo264/domains/wsnoordbergum.nl/public_html/weather2/metar/metarDisplay.php on line 166

Warning: A non-numeric value encountered in /home/tjeerqo264/domains/wsnoordbergum.nl/public_html/weather2/metar/wsMetarTxt.php on line 609

Warning: A non-numeric value encountered in /home/tjeerqo264/domains/wsnoordbergum.nl/public_html/weather2/metar/wsMetarTxt.php on line 609

Warning: A non-numeric value encountered in /home/tjeerqo264/domains/wsnoordbergum.nl/public_html/weather2/metar/metarDisplay.php on line 166

Warning: A non-numeric value encountered in /home/tjeerqo264/domains/wsnoordbergum.nl/public_html/weather2/metar/wsMetarTxt.php on line 609
   
EHLW - Leeuwarden Rnlaf, Netherlands
Afstand tot: W 17 km
Gewijzigd: 24-02-2021 20:55
Grotendeels bewolkt  
Grotendeels bewolkt  
   Wind: Zuiden 11.1 km/h
Wind: Zuiden 11.1 km/h
Temperatuur: 12°C
Dauwpunt: 7°C
Vochtigheid: 72%
Barometer: 1024 hPa
Bewolking: Grotendeels bewolkt
Zicht: meer dan 10 km
Bewolking: Grotendeels bewolkt 35000 ft
EHLW 241955Z AUTO 18006KT 150V210 9999 BKN350 12/07 Q1024 BLU
EHMA - Awg-1 Sea, Netherlands
Afstand tot: N 31 km
Gewijzigd: 24-02-2021 20:55
Gedeeltelijk bewolkt  
Gedeeltelijk bewolkt  
   Wind: ZZW 38.9 km/h
Wind: ZZW 38.9 km/h
Temperatuur: 13°C
Dauwpunt: 8°C
Vochtigheid: 72%
Barometer: 1024 hPa
Bewolking: Gedeeltelijk bewolkt
Zicht: meer dan 10 km
Bewolking: Gedeeltelijk bewolkt
EHMA 241955Z AUTO 20021KT 9999 NSC 13/08 Q1024
EHGG - Groningen/Eelde, Netherlands
Afstand tot: OZO 40 km
Gewijzigd: 24-02-2021 20:55
Helder  
Helder  
   Wind: Zuiden 11.1 km/h
Wind: Zuiden 11.1 km/h
Temperatuur: 12°C
Dauwpunt: 6°C
Vochtigheid: 67%
Barometer: 1025 hPa
Bewolking: Helder
Zicht: meer dan 10 km
Bewolking: Helder
EHGG 241955Z AUTO 18006KT 9999 NCD 12/06 Q1025 NOSIG
EHVL - Vlieland Island, Netherlands
Afstand tot: W 72 km
Gewijzigd: 24-02-2021 20:55
Bewolking  
Bewolking  
   Wind: Zuiden 24.1 km/h
Wind: Zuiden 24.1 km/h
Temperatuur: 10°C
Voelt als: 7°C
Dauwpunt: 7°C
Vochtigheid: 82%
Barometer: 1023 hPa
Bewolking: Bewolking
Zicht: meer dan 10 km
Bewolking: Bewolking 28000 ft
EHVL 241955Z AUTO 18013KT 9999 OVC280 10/07 Q1023 BLU
EHMG - L9-Ff-1 Sea, Netherlands
Afstand tot: WNW 81 km
Gewijzigd: 24-02-2021 20:55
Gedeeltelijk bewolkt  
Gedeeltelijk bewolkt  
   Wind: ZW 66.7 km/h
Wind: ZW 66.7 km/h
Temperatuur: 10°C
Voelt als: 5°C
Dauwpunt: 6°C
Vochtigheid: 76%
Barometer: 1024 hPa
Bewolking: Gedeeltelijk bewolkt
Zicht: meer dan 10 km
Bewolking: Gedeeltelijk bewolkt
EHMG 241955Z AUTO 22036KT 9999 NSC 10/06 Q1024
EHKD - De Kooy (navy), Netherlands
Afstand tot: WZW 89 km
Gewijzigd: 24-02-2021 20:55
Bewolking  
Bewolking  
   Wind: Zuiden 16.7 km/h
Wind: Zuiden 16.7 km/h
Temperatuur: 12°C
Dauwpunt: 7°C
Vochtigheid: 72%
Barometer: 1024 hPa
Bewolking: Bewolking
Zicht: meer dan 10 km
Bewolking: Bewolking 28000 ft
EHKD 241955Z AUTO 18009KT 9999 OVC280 12/07 Q1024 BLU

Script ontwikkeld door  Saratoga-weather.org Aangepast voor de template door  Weerstation Leuven

Apparatuur in gebruik:

Weerstation
Davis Vantage pro 2

Weerprogramma
Meteobridge

Weercomputer
Meteobridge Nano SD

Webleverancier
Versio

Davis Vantage pro 2

Meteobridge

Meteobridge Nano SD

Versio